Lauritzen Yacht Harbor
Updated WEATHER every hour; Delta WATER and tide conditions; live TOWER CAM;
The FISHING report with PHOTOGRAPHS; harbor NEWS Items; before you get UNDERWAY ;
OTHER points of interest; WHO are we? WHAT can we provide? WHERE are we?

CRITICAL NEWS REGARING FRANKS TRACK AND LITTLE FRANKS TRACK

24 Hour Weather Archive

                   Temp   Wind   Hum   Dew   Wind                            
   Date    Time    Out   Chill   Out   Pt.  Speed    Hi    Dir   Rain   Bar  
11/16/18  12:00a   39.7   39.7    --     --   0.0    0.0   ---   0.00  30.181
11/16/18  12:30a   39.1   39.1    --     --   0.0    0.0   ---   0.00  30.185
11/16/18   1:00a   39.7   39.7    --     --   0.0    0.0   ---   0.00  30.182
11/16/18   1:30a   39.0   39.0    --     --   0.0    0.0   ---   0.00  30.180
11/16/18   2:00a   38.4   38.4    --     --   0.0    0.0   ---   0.00  30.178
11/16/18   2:30a   37.3   37.3    --     --   0.0    0.0   ---   0.00  30.179
11/16/18   3:00a   36.5   36.5    --     --   0.0    0.0   ---   0.00  30.180
11/16/18   3:30a   36.2   36.2    --     --   0.0    0.0   ---   0.00  30.172
11/16/18   4:00a   35.4   35.4    --     --   0.0    0.0   ---   0.00  30.170
11/16/18   4:30a   36.2   36.2    --     --   0.0    0.0   ---   0.00  30.166
11/16/18   5:00a   35.3   35.3    --     --   0.0    0.0   ---   0.00  30.164
11/16/18   5:30a   35.5   35.5    --     --   0.0    0.0   ---   0.00  30.158
11/16/18   6:00a   35.5   35.5    --     --   0.0    0.0   ---   0.00  30.155
11/16/18   6:30a   34.8   34.8    --     --   0.0    0.0   ---   0.00  30.149
11/16/18   7:00a   34.4   34.4    --     --   0.0    0.0   ---   0.00  30.148
11/16/18   7:30a   33.9   33.9    --     --   0.0    0.0   ---   0.00  30.149
11/16/18   8:00a   34.0   34.0    --     --   0.0    0.0   ---   0.00  30.159
11/16/18   8:30a   35.1   35.1    --     --   0.0    0.0   ---   0.00  30.159
11/16/18   9:00a   37.7   37.7    --     --   0.0    0.0   ---   0.00  30.168
11/16/18   9:30a   40.9   40.9    --     --   0.0    0.0   ---   0.00  30.180
11/16/18  10:00a   46.6   46.6    --     --   0.0    0.0   ---   0.00  30.176
11/16/18  10:30a   51.3   51.3    --     --   0.0    0.0   ---   0.00  30.178
11/16/18  11:00a   52.2   52.2    --     --   0.0    3.0     N   0.00  30.175
11/16/18  11:30a   55.9   55.9    --     --   0.0    3.0     N   0.00  30.167
11/16/18  12:00p   59.0   59.0    --     --   1.0    5.0     N   0.00  30.161
11/16/18  12:30p   59.6   59.6    --     --   1.0    3.0     N   0.00  30.145
11/16/18   1:00p   63.4   63.4    --     --   0.0    3.0     N   0.00  30.128
11/16/18   1:30p   66.5   66.5    --     --   0.0    3.0     N   0.00  30.120
11/16/18   2:00p   66.3   66.3    --     --   1.0    4.0     N   0.00  30.102
11/16/18   2:30p   66.1   66.1    --     --   2.0    4.0     N   0.00  30.089
11/16/18   3:00p   67.5   67.5    --     --   1.0    3.0     N   0.00  30.078
11/16/18   3:30p   69.0   69.0    --     --   0.0    2.0     N   0.00  30.076
11/16/18   4:00p   67.4   67.4    --     --   0.0    2.0     N   0.00  30.069
11/16/18   4:30p   66.0   66.0    --     --   0.0    0.0   ---   0.00  30.065
11/16/18   5:00p   63.2   63.2    --     --   0.0    0.0   ---   0.00  30.058
11/16/18   5:30p   59.4   59.4    --     --   0.0    0.0   ---   0.00  30.059
11/16/18   6:00p   53.7   53.7    --     --   0.0    0.0   ---   0.00  30.052
11/16/18   6:30p   49.8   49.8    --     --   0.0    0.0   ---   0.00  30.054
11/16/18   7:00p   47.5   47.5    --     --   0.0    0.0   ---   0.00  30.055
11/16/18   7:30p   46.9   46.9    --     --   0.0    0.0   ---   0.00  30.064
11/16/18   8:00p   45.7   45.7    --     --   0.0    0.0   ---   0.00  30.065
11/16/18   8:30p   44.3   44.3    --     --   0.0    0.0   ---   0.00  30.069
11/16/18   9:00p   42.8   42.8    --     --   0.0    0.0   ---   0.00  30.077
11/16/18   9:30p   42.0   42.0    --     --   0.0    0.0   ---   0.00  30.076
11/16/18  10:00p   41.4   41.4    --     --   0.0    0.0   ---   0.00  30.077
11/16/18  10:30p   40.9   40.9    --     --   0.0    0.0   ---   0.00  30.081
11/16/18  11:00p   40.1   40.1    --     --   0.0    0.0   ---   0.00  30.083
11/16/18  11:30p   39.5   39.5    --     --   0.0    0.0   ---   0.00  30.089
11/16/18  12:00p   39.4   39.4    --     --   0.0    0.0   ---   0.00  30.093
11/17/18  12:00a   39.4   39.4    --     --   0.0    0.0   ---   0.00  30.093
11/17/18  12:30a   39.8   39.8    --     --   0.0    0.0   ---   0.00  30.100
11/17/18   1:00a   39.2   39.2    --     --   0.0    0.0   ---   0.00  30.107
11/17/18   1:30a   39.7   39.7    --     --   0.0    0.0   ---   0.00  30.108
11/17/18   2:00a   38.9   38.9    --     --   0.0    0.0   ---   0.00  30.105
11/17/18   2:30a   38.4   38.4    --     --   0.0    0.0   ---   0.00  30.104
11/17/18   3:00a   38.3   38.3    --     --   0.0    0.0   ---   0.00  30.100
11/17/18   3:30a   37.3   37.3    --     --   0.0    0.0   ---   0.00  30.104
11/17/18   4:00a   37.1   37.1    --     --   0.0    0.0   ---   0.00  30.099
11/17/18   4:30a   36.2   36.2    --     --   0.0    0.0   ---   0.00  30.106
11/17/18   5:00a   35.5   35.5    --     --   0.0    0.0   ---   0.00  30.106
11/17/18   5:30a   35.6   35.6    --     --   0.0    0.0   ---   0.00  30.111
11/17/18   6:00a   35.5   35.5    --     --   0.0    0.0   ---   0.00  30.113
11/17/18   6:30a   34.6   34.6    --     --   0.0    0.0   ---   0.00  30.116
11/17/18   7:00a   34.5   34.5    --     --   0.0    0.0   ---   0.00  30.127
11/17/18   7:30a   34.5   34.5    --     --   0.0    0.0   ---   0.00  30.142
11/17/18   8:00a   34.9   34.9    --     --   0.0    0.0   ---   0.00  30.144
11/17/18   8:30a   36.0   36.0    --     --   0.0    3.0     N   0.00  30.154
11/17/18   9:00a   37.5   37.5    --     --   0.0    4.0     N   0.00  30.163
11/17/18   9:30a   41.8   41.8    --     --   1.0    4.0     N   0.00  30.173
11/17/18  10:00a   45.6   45.6    --     --   1.0    4.0     N   0.00  30.170
11/17/18  10:30a   50.6   50.6    --     --   0.0    3.0     N   0.00  30.181
11/17/18  11:00a   55.0   55.0    --     --   0.0    3.0     N   0.00  30.181
11/17/18  11:30a   58.8   58.8    --     --   1.0    4.0     N   0.00  30.181
11/17/18  12:00p   59.6   59.6    --     --   1.0    3.0     N   0.00  30.178
11/17/18  12:30p   64.0   64.0    --     --   0.0    3.0     N   0.00  30.162
11/17/18   1:00p   66.8   66.8    --     --   0.0    2.0     N   0.00  30.152
11/17/18   1:30p   68.3   68.3    --     --   0.0    0.0   ---   0.00  30.143
11/17/18   2:00p   67.9   67.9    --     --   0.0    3.0     N   0.00  30.133
11/17/18   2:30p   70.1   70.1    --     --   0.0    4.0     N   0.00  30.125
11/17/18   3:00p   70.8   70.8    --     --   0.0    0.0   ---   0.00  30.115
11/17/18   3:30p   69.1   69.1    --     --   0.0    5.0     N   0.00  30.105
11/17/18   4:00p   67.8   67.8    --     --   1.0    4.0     N   0.00  30.101
11/17/18   4:30p   66.1   66.1    --     --   1.0    4.0     N   0.00  30.099
11/17/18   5:00p   62.2   62.2    --     --   1.0    3.0     N   0.00  30.096
11/17/18   5:30p   59.9   59.9    --     --   1.0    3.0     N   0.00  30.098
11/17/18   6:00p   56.9   56.9    --     --   0.0    2.0     N   0.00  30.098


Send questions or comments to:
Some of the material in this website is copyrighted © by Lauritzen Yacht Harbor and may not be used by others without our specific permission.
All rights are reserved. iPhone friendly. Viewed best with Mozilla Firefox